Time;durP1;ratioP1;P1;durP2;ratioP2;P2;SDS_P1;SDS_P2;PMS_P1;PMS_P2;Temp;Humidity;BMP_temperature;BMP_pressure;BME280_temperature;BME280_humidity;BME280_pressure;Samples;Min_cycle;Max_cycle;Signal;HPM_P1;HPM_P2
2022/09/09 02:24:51;;;;;;;8.88;6.55;;;;;;;16.73;100.00;98762.84;4577747;76;22977;-85
2022/09/09 02:30:58;;;;;;;9.28;6.30;;;;;;;16.71;100.00;98763.09;4507027;77;20987;-85
2022/09/09 02:37:05;;;;;;;11.65;7.05;;;;;;;16.77;100.00;98776.61;4515908;77;21042;-84
2022/09/09 02:43:07;;;;;;;8.20;6.05;;;;;;;16.85;100.00;98786.34;4491106;77;20995;-85
2022/09/09 02:49:18;;;;;;;11.25;6.20;;;;;;;16.93;100.00;98795.46;4520436;77;21563;-84
2022/09/09 02:55:49;;;;;;;9.93;6.53;;;;;;;16.99;100.00;98801.31;4493772;77;21535;-85
2022/09/09 03:01:53;;;;;;;8.58;6.28;;;;;;;17.02;100.00;98804.61;4515841;77;21022;-84
2022/09/09 03:07:55;;;;;;;9.25;6.25;;;;;;;16.98;100.00;98808.02;4500520;77;21003;-84
2022/09/09 03:13:57;;;;;;;8.93;6.62;;;;;;;16.96;100.00;98815.36;4514195;77;20992;-85
2022/09/09 03:20:01;;;;;;;7.97;5.70;;;;;;;17.01;100.00;98813.50;4479229;77;21015;-84
2022/09/09 03:26:04;;;;;;;8.20;5.75;;;;;;;16.96;100.00;98802.91;4473824;77;20996;-85
2022/09/09 03:32:10;;;;;;;10.78;8.00;;;;;;;16.95;100.00;98800.57;4476341;77;21047;-82
2022/09/09 03:38:17;;;;;;;10.50;8.70;;;;;;;16.78;100.00;98798.89;4382741;79;21031;-82
2022/09/09 03:44:18;;;;;;;8.93;7.40;;;;;;;16.53;100.00;98802.07;4279893;81;42696;-83
2022/09/09 03:50:21;;;;;;;10.75;7.03;;;;;;;16.51;100.00;98803.67;4217979;82;21055;-83
2022/09/09 03:56:23;;;;;;;10.48;7.62;;;;;;;16.37;100.00;98817.08;4245043;82;21047;-84
2022/09/09 04:02:24;;;;;;;15.03;7.90;;;;;;;16.42;100.00;98819.97;4222729;82;21465;-82
2022/09/09 04:08:26;;;;;;;9.28;7.17;;;;;;;16.45;100.00;98828.24;4229922;82;22142;-85
2022/09/09 04:14:28;;;;;;;12.63;6.85;;;;;;;16.40;100.00;98827.88;4238161;82;21866;-82
2022/09/09 04:20:30;;;;;;;10.10;6.83;;;;;;;16.35;100.00;98825.61;4226750;82;21046;-84
2022/09/09 04:26:33;;;;;;;10.23;6.78;;;;;;;16.31;100.00;98835.33;4256935;81;21010;-83
2022/09/09 04:32:36;;;;;;;12.68;7.25;;;;;;;16.29;100.00;98822.52;4257816;82;21041;-83
2022/09/09 04:38:39;;;;;;;10.70;7.70;;;;;;;16.30;100.00;98819.17;4272884;82;21025;-83
2022/09/09 04:44:41;;;;;;;9.03;6.83;;;;;;;16.19;100.00;98824.06;4274754;82;22029;-82
2022/09/09 04:50:43;;;;;;;15.93;7.37;;;;;;;16.28;100.00;98819.59;4257235;82;21042;-83
2022/09/09 04:56:46;;;;;;;12.78;8.03;;;;;;;16.41;100.00;98819.80;4270768;82;21634;-83
2022/09/09 05:02:48;;;;;;;11.75;8.28;;;;;;;16.40;100.00;98834.20;4249749;81;21071;-81
2022/09/09 05:08:51;;;;;;;13.48;8.13;;;;;;;16.45;100.00;98845.41;4275079;82;21035;-83
2022/09/09 05:14:54;;;;;;;12.85;7.97;;;;;;;16.58;100.00;98851.94;4257522;82;21050;-82
2022/09/09 05:21:00;;;;;;;11.28;7.42;;;;;;;16.66;100.00;98842.34;4261930;81;21018;-82
2022/09/09 05:27:02;;;;;;;10.53;6.60;;;;;;;16.69;100.00;98847.03;4276930;81;21034;-82
2022/09/09 05:33:05;;;;;;;7.80;6.62;;;;;;;16.74;100.00;98845.94;4260449;82;20964;-85
2022/09/09 05:39:08;;;;;;;10.95;6.80;;;;;;;16.80;100.00;98852.55;4269198;82;21935;-81
2022/09/09 05:45:10;;;;;;;14.35;6.80;;;;;;;16.81;100.00;98854.12;4271483;82;21006;-82
2022/09/09 05:51:16;;;;;;;7.75;5.58;;;;;;;16.81;100.00;98855.52;4246984;82;21119;-84
2022/09/09 05:57:30;;;;;;;8.55;5.80;;;;;;;16.82;100.00;98855.69;4261671;82;22020;-83
2022/09/09 06:03:35;;;;;;;13.75;8.63;;;;;;;16.89;100.00;98874.14;4265520;82;21056;-82
2022/09/09 06:09:36;;;;;;;7.78;6.65;;;;;;;16.94;100.00;98875.81;4268809;82;21030;-83
2022/09/09 06:15:38;;;;;;;11.80;7.72;;;;;;;17.03;100.00;98877.47;4271157;82;21575;-83
2022/09/09 06:21:40;;;;;;;11.20;8.28;;;;;;;17.16;100.00;98895.01;4249993;82;21035;-84
2022/09/09 06:27:51;;;;;;;12.43;8.60;;;;;;;17.27;100.00;98886.55;4223308;83;21428;-83
2022/09/09 06:33:54;;;;;;;11.97;8.33;;;;;;;17.33;100.00;98880.70;4231538;82;21899;-84
2022/09/09 06:39:57;;;;;;;13.13;8.63;;;;;;;17.59;100.00;98883.21;4213145;83;21040;-83
2022/09/09 06:46:12;;;;;;;11.85;7.92;;;;;;;17.86;100.00;98884.67;4229881;83;20971;-84
2022/09/09 06:52:14;;;;;;;14.68;6.30;;;;;;;17.99;100.00;98886.99;4233314;83;21018;-83
2022/09/09 06:58:16;;;;;;;9.33;5.30;;;;;;;18.13;100.00;98878.98;4247130;83;21021;-82
2022/09/09 07:04:20;;;;;;;6.25;4.53;;;;;;;18.10;100.00;98877.83;4235147;83;20959;-83
2022/09/09 07:10:21;;;;;;;6.55;3.70;;;;;;;18.17;100.00;98875.52;4248601;83;21890;-83
2022/09/09 07:16:24;;;;;;;8.13;4.28;;;;;;;18.28;100.00;98874.69;4171038;83;20977;-83
2022/09/09 07:22:28;;;;;;;4.42;3.75;;;;;;;18.54;100.00;98874.52;4267049;81;21018;-83
2022/09/09 07:28:31;;;;;;;7.55;3.33;;;;;;;18.76;100.00;98872.66;4294134;82;21035;-84
2022/09/09 07:34:32;;;;;;;4.33;3.25;;;;;;;18.71;100.00;98863.63;4281865;82;20982;-84
2022/09/09 07:40:36;;;;;;;6.28;3.35;;;;;;;18.70;100.00;98861.28;4275992;82;21121;-84
2022/09/09 07:46:39;;;;;;;3.00;2.50;;;;;;;18.79;100.00;98871.79;4279161;82;20988;-84
2022/09/09 07:52:42;;;;;;;3.05;2.72;;;;;;;18.93;100.00;98868.67;4282810;82;21012;-84
2022/09/09 07:58:49;;;;;;;4.72;2.70;;;;;;;19.24;100.00;98878.19;4273344;82;22276;-83
2022/09/09 08:04:51;;;;;;;4.33;2.60;;;;;;;19.57;100.00;98880.52;4285576;82;21855;-83
2022/09/09 08:10:53;;;;;;;2.75;2.25;;;;;;;19.65;100.00;98883.28;4284805;82;21032;-83
2022/09/09 08:16:57;;;;;;;4.62;2.35;;;;;;;19.88;100.00;98883.63;4259293;82;20998;-84
2022/09/09 08:23:00;;;;;;;1.92;1.67;;;;;;;20.20;100.00;98883.55;4245315;82;20988;-84
2022/09/09 08:29:06;;;;;;;2.98;1.90;;;;;;;20.35;99.41;98898.57;4215245;83;21036;-85
2022/09/09 08:35:09;;;;;;;2.42;1.67;;;;;;;20.50;99.51;98892.74;4191901;83;21001;-84
2022/09/09 08:41:34;;;;;;;2.42;1.62;;;;;;;20.51;97.41;98888.76;4214982;83;21650;-84
2022/09/09 08:47:53;;;;;;;5.95;1.60;;;;;;;20.51;96.70;98896.31;4214736;83;21035;-85
2022/09/09 08:54:02;;;;;;;1.75;1.40;;;;;;;20.56;96.32;98897.95;4223089;83;21481;-85
2022/09/09 09:00:08;;;;;;;2.42;1.42;;;;;;;20.52;95.33;98900.04;4186987;83;21058;-84
2022/09/09 09:06:17;;;;;;;;;;;;;;;20.89;95.27;98898.50;4222962;83;21047;-85
2022/09/09 09:12:26;;;;;;;5.15;2.65;;;;;;;21.29;93.60;98907.94;4221919;83;20183;-85
2022/09/09 09:18:31;;;;;;;4.10;1.42;;;;;;;;;;4218338;83;21053;-85
2022/09/09 09:25:04;;;;;;;2.17;1.10;;;;;;;21.94;90.85;98899.11;4222686;82;22258;-84
2022/09/09 09:31:13;;;;;;;1.57;1.30;;;;;;;22.60;91.91;98894.45;4213690;83;21075;-85
2022/09/09 09:37:31;;;;;;;2.45;1.27;;;;;;;23.70;88.84;98902.70;4222002;83;21036;-85
2022/09/09 09:43:39;;;;;;;3.87;1.70;;;;;;;23.55;85.52;98892.59;4181114;83;21036;-83
2022/09/09 09:50:04;;;;;;;1.45;1.35;;;;;;;22.89;85.47;98893.52;4212504;83;21012;-85
2022/09/09 09:56:13;;;;;;;1.67;1.22;;;;;;;22.50;85.19;98892.05;4229575;83;22181;-85
2022/09/09 10:02:24;;;;;;;3.15;1.20;;;;;;;23.16;85.85;98892.81;4216146;83;21051;-85
2022/09/09 10:08:28;;;;;;;3.40;1.50;;;;;;;23.94;82.89;98894.47;4198615;83;21658;-85
2022/09/09 10:14:45;;;;;;;2.90;1.10;;;;;;;23.75;81.18;98882.52;4216599;83;21127;-85
2022/09/09 10:21:26;;;;;;;2.50;1.00;;;;;;;23.89;80.67;98883.91;3932439;83;21864;-85
2022/09/09 10:27:57;;;;;;;1.82;1.02;;;;;;;24.33;79.17;98894.92;4276057;81;21617;-85
2022/09/09 10:34:56;;;;;;;1.00;0.70;;;;;;;24.61;79.10;98891.58;4294598;81;21026;-85
2022/09/09 10:41:22;;;;;;;1.22;0.75;;;;;;;25.40;76.08;98894.99;4297692;81;21006;-85
2022/09/09 10:48:19;;;;;;;1.43;0.70;;;;;;;24.50;74.96;98901.71;4292645;81;21031;-85
2022/09/09 10:54:46;;;;;;;1.92;1.00;;;;;;;23.46;75.14;98891.95;4307862;81;21025;-85
2022/09/09 11:00:58;;;;;;;1.40;0.85;;;;;;;24.17;75.31;98899.44;4291568;81;21079;-86
2022/09/09 11:07:09;;;;;;;1.75;1.02;;;;;;;24.20;73.70;98893.70;4297505;81;22111;-84
2022/09/09 11:13:47;;;;;;;1.92;1.20;;;;;;;24.58;68.20;98888.33;4287372;81;21996;-83
2022/09/09 11:20:06;;;;;;;1.75;0.90;;;;;;;24.95;66.86;98893.17;4331394;81;21002;-84
2022/09/09 11:26:28;;;;;;;2.15;0.80;;;;;;;25.46;68.38;98874.25;4231090;81;21449;-84
2022/09/09 11:33:27;;;;;;;1.10;0.57;;;;;;;25.67;66.28;98873.75;4356148;81;20926;-84
2022/09/09 11:40:05;;;;;;;1.90;1.07;;;;;;;25.07;65.29;98883.80;4299211;81;21014;-84
2022/09/09 11:46:11;;;;;;;1.87;0.90;;;;;;;24.49;65.56;98885.53;4321870;81;20955;-84
2022/09/09 11:52:47;;;;;;;1.35;0.93;;;;;;;24.04;65.14;98876.48;4305091;81;21597;-85
2022/09/09 11:59:05;;;;;;;1.42;0.72;;;;;;;23.53;64.66;98884.68;4300966;81;20979;-85
2022/09/09 12:05:19;;;;;;;1.80;0.85;;;;;;;23.19;65.62;98881.48;4313529;81;21025;-85
2022/09/09 12:11:30;;;;;;;5.50;1.12;;;;;;;22.74;65.19;98846.45;4320278;81;21582;-84
2022/09/09 12:17:46;;;;;;;1.25;0.80;;;;;;;22.73;65.04;98879.01;4325304;81;21009;-85
2022/09/09 12:24:22;;;;;;;0.82;0.70;;;;;;;22.67;64.93;98880.84;4276233;81;21028;-85
2022/09/09 12:30:44;;;;;;;1.62;1.00;;;;;;;22.81;65.57;98876.89;4269095;82;21611;-85
2022/09/09 12:36:56;;;;;;;1.62;0.65;;;;;;;22.88;64.55;98876.59;4166286;82;21033;-85
2022/09/09 12:43:19;;;;;;;1.15;0.65;;;;;;;22.90;62.71;98876.12;4272486;82;20990;-85
2022/09/09 12:49:38;;;;;;;1.30;0.70;;;;;;;23.02;61.93;98860.66;4281873;82;21012;-85
2022/09/09 12:56:02;;;;;;;0.80;0.70;;;;;;;23.05;61.83;98868.75;4263860;82;21019;-84
2022/09/09 13:02:22;;;;;;;0.88;0.78;;;;;;;23.07;62.45;98880.20;4214309;82;21002;-84
2022/09/09 13:09:01;;;;;;;1.10;0.70;;;;;;;23.11;61.11;98855.73;4194184;82;20953;-85
2022/09/09 13:15:38;;;;;;;1.85;0.50;;;;;;;23.13;61.31;98850.47;4264662;82;20993;-85
2022/09/09 13:21:57;;;;;;;2.72;0.70;;;;;;;23.02;60.75;98843.15;4326390;81;20968;-85
2022/09/09 13:28:24;;;;;;;3.62;0.88;;;;;;;22.91;60.64;98853.97;4267140;81;21061;-85
2022/09/09 13:35:02;;;;;;;0.65;0.60;;;;;;;22.87;59.99;98852.72;4213977;83;21926;-86
2022/09/09 13:41:07;;;;;;;2.00;0.60;;;;;;;22.90;59.87;98843.42;4247415;83;21028;-84
2022/09/09 13:47:29;;;;;;;1.77;0.68;;;;;;;22.97;59.31;98839.56;4232138;83;21547;-85
2022/09/09 14:00:13;;;;;;;2.40;0.65;;;;;;;22.98;59.51;98836.92;4226482;83;21957;-85
2022/09/09 14:06:29;;;;;;;1.02;0.68;;;;;;;22.88;59.89;98826.34;4163921;83;21087;-84
2022/09/09 14:12:31;;;;;;;1.60;0.90;;;;;;;22.81;59.86;98829.45;4252662;83;20988;-85
2022/09/09 14:18:34;;;;;;;0.65;0.65;;;;;;;22.79;59.89;98826.33;4232866;83;21066;-85
2022/09/09 14:24:36;;;;;;;2.80;1.45;;;;;;;22.64;60.45;98831.55;4233267;83;22103;-86
2022/09/09 14:31:06;;;;;;;0.98;0.70;;;;;;;22.57;60.81;98827.02;4164237;83;21033;-86
2022/09/09 14:37:33;;;;;;;1.65;0.95;;;;;;;22.54;60.74;98807.02;4359646;81;21502;-87
2022/09/09 14:43:40;;;;;;;1.67;0.78;;;;;;;22.49;60.30;98811.02;4292243;82;21430;-85
2022/09/09 14:49:42;;;;;;;1.30;1.02;;;;;;;22.42;60.79;98805.09;4266475;81;21089;-87
2022/09/09 14:56:24;;;;;;;1.98;1.10;;;;;;;22.36;60.85;98804.14;4318868;81;20955;-87
2022/09/09 15:02:26;;;;;;;1.80;0.95;;;;;;;22.18;60.73;98804.04;4272590;81;21068;-85
2022/09/09 15:08:28;;;;;;;2.33;1.20;;;;;;;21.92;61.32;98802.66;4284222;81;21594;-87
2022/09/09 15:14:30;;;;;;;2.08;0.95;;;;;;;21.90;62.11;98798.76;4291917;81;21016;-87
2022/09/09 15:20:46;;;;;;;1.32;0.88;;;;;;;21.81;62.49;98800.89;4296487;81;21018;-87
2022/09/09 15:27:18;;;;;;;1.67;0.90;;;;;;;21.65;62.26;98796.27;4301778;81;20991;-87
2022/09/09 15:33:22;;;;;;;1.22;1.10;;;;;;;21.58;62.21;98788.15;4276992;81;21059;-86
2022/09/09 15:39:23;;;;;;;3.10;0.80;;;;;;;21.52;62.71;98794.14;4233782;83;21062;-88
2022/09/09 15:45:58;;;;;;;1.50;1.12;;;;;;;21.40;63.27;98802.55;4239517;83;21633;-86
2022/09/09 15:52:12;;;;;;;1.67;1.20;;;;;;;21.34;63.57;98792.62;4238290;83;21048;-85
2022/09/09 15:58:15;;;;;;;1.85;1.10;;;;;;;21.25;64.25;98793.16;4226336;83;21000;-87
2022/09/09 16:04:47;;;;;;;2.33;1.30;;;;;;;21.15;64.70;98803.43;4249506;83;21064;-87
2022/09/09 16:10:54;;;;;;;1.72;1.15;;;;;;;21.12;65.21;98818.84;4222674;83;21059;-86
2022/09/09 16:16:55;;;;;;;1.55;1.10;;;;;;;21.03;65.35;98814.59;4203186;83;21075;-87
2022/09/09 16:23:21;;;;;;;1.87;1.50;;;;;;;20.89;65.70;98812.25;4215264;84;22049;-87
2022/09/09 16:29:34;;;;;;;2.27;1.37;;;;;;;20.82;66.05;98814.66;4226210;84;21464;-86
2022/09/09 16:35:43;;;;;;;2.98;1.85;;;;;;;20.71;67.19;98810.65;4208649;81;20988;-86
2022/09/09 16:41:49;;;;;;;2.83;1.60;;;;;;;20.48;67.16;98822.92;4240438;83;21043;-85
2022/09/09 16:47:53;;;;;;;4.05;2.20;;;;;;;20.32;67.80;98821.63;4225166;83;21066;-86
2022/09/09 16:54:06;;;;;;;3.87;1.80;;;;;;;20.22;68.27;98812.98;4229620;83;21055;-86
2022/09/09 17:00:33;;;;;;;3.12;1.90;;;;;;;20.07;68.72;98809.84;4236219;83;21027;-87
2022/09/09 17:06:36;;;;;;;2.95;1.75;;;;;;;19.85;69.48;98803.36;4225497;83;21508;-86
2022/09/09 17:12:58;;;;;;;4.17;2.00;;;;;;;19.60;70.31;98809.44;4233627;83;21995;-86
2022/09/09 17:19:21;;;;;;;4.72;1.80;;;;;;;19.43;71.00;98811.50;4232116;83;21004;-86
2022/09/09 17:25:26;;;;;;;6.22;2.80;;;;;;;19.20;71.84;98810.92;4235882;83;21000;-86
2022/09/09 17:31:52;;;;;;;4.87;2.47;;;;;;;19.06;72.55;98816.20;4221684;83;21662;-86
2022/09/09 17:38:59;;;;;;;5.15;2.55;;;;;;;18.90;73.40;98824.56;4249501;82;21095;-86
2022/09/09 17:45:48;;;;;;;12.55;4.30;;;;;;;18.73;74.43;98832.09;4055176;87;21099;-86
2022/09/09 17:52:02;;;;;;;12.60;6.80;;;;;;;18.61;75.23;98845.27;4059853;86;21108;-86
2022/09/09 17:58:29;;;;;;;19.77;10.78;;;;;;;18.48;75.75;98842.98;4131320;83;21043;-86
2022/09/09 18:04:35;;;;;;;21.80;11.65;;;;;;;18.36;76.75;98840.08;4169631;85;21024;-86
2022/09/09 18:10:39;;;;;;;26.52;14.03;;;;;;;18.27;77.55;98846.81;4167643;83;21012;-85
2022/09/09 18:37:32;;;;;;;21.35;11.85;;;;;;;18.07;80.32;98865.46;4243083;81;21555;-86
2022/09/09 18:44:36;;;;;;;15.98;10.80;;;;;;;17.80;80.76;98873.13;4199005;82;20955;-86
2022/09/09 18:51:34;;;;;;;21.00;11.68;;;;;;;17.75;81.64;98870.84;4210624;83;20994;-86
2022/09/09 19:04:38;;;;;;;25.80;13.58;;;;;;;17.75;82.98;98879.95;4116995;86;21120;-86
2022/09/09 19:25:11;;;;;;;17.70;11.08;;;;;;;17.49;85.06;98886.98;3967789;89;21126;-86
2022/09/09 19:31:54;;;;;;;16.55;11.40;;;;;;;17.43;85.64;98882.48;3957513;88;21587;-86
2022/09/09 19:38:30;;;;;;;17.10;10.58;;;;;;;17.15;85.86;98875.48;3971635;88;21050;-86
2022/09/09 19:45:10;;;;;;;20.05;12.25;;;;;;;16.99;86.56;98875.34;3855842;89;21071;-85
2022/09/09 19:51:36;;;;;;;22.60;12.40;;;;;;;16.96;87.25;98857.45;3955910;85;21580;-86
2022/09/09 19:58:08;;;;;;;20.72;12.98;;;;;;;16.83;87.84;98865.56;4155070;85;21075;-85
2022/09/09 20:04:35;;;;;;;29.75;16.77;;;;;;;16.85;88.07;98860.38;4333065;82;21974;-85
2022/09/09 20:11:15;;;;;;;17.50;13.08;;;;;;;16.84;88.27;98866.32;4188793;84;21128;-85
2022/09/09 20:18:07;;;;;;;15.68;10.10;;;;;;;16.82;88.87;98872.27;4257120;82;20975;-85
2022/09/09 20:24:26;;;;;;;19.35;11.03;;;;;;;16.85;89.44;98871.43;4327897;82;21039;-86
2022/09/09 20:31:05;;;;;;;19.92;11.20;;;;;;;16.82;89.45;98870.89;4327981;82;21030;-85
2022/09/09 20:37:35;;;;;;;18.85;12.18;;;;;;;16.78;90.00;98874.32;4207177;84;21973;-86
2022/09/09 20:44:13;;;;;;;17.95;11.80;;;;;;;16.68;90.34;98872.48;4230573;81;21359;-85
2022/09/09 20:50:45;;;;;;;17.50;11.33;;;;;;;16.43;90.31;98885.86;4317164;81;21003;-86
2022/09/09 20:56:49;;;;;;;16.75;12.35;;;;;;;16.35;91.43;98882.24;4308564;81;20984;-85
2022/09/09 21:03:14;;;;;;;19.50;12.13;;;;;;;16.39;91.57;98887.11;4223296;81;21046;-86
2022/09/09 21:09:23;;;;;;;16.05;12.23;;;;;;;16.41;91.87;98885.48;4286008;81;21006;-85
2022/09/09 21:15:41;;;;;;;16.37;11.28;;;;;;;16.37;92.20;98883.38;4314222;81;21015;-86
2022/09/09 21:21:56;;;;;;;;;;;;;;;16.24;92.40;98873.32;4305084;81;21078;-86
2022/09/09 21:27:59;;;;;;;18.52;11.38;;;;;;;16.15;93.50;98869.67;4144561;85;20329;-85
2022/09/09 21:40:43;;;;;;;20.30;10.85;;;;;;;16.04;93.68;98878.69;4181714;83;21898;-85
2022/09/09 21:46:45;;;;;;;15.63;10.75;;;;;;;16.05;94.63;98878.10;4216763;83;21060;-86
2022/09/09 21:53:09;;;;;;;17.77;9.95;;;;;;;16.21;94.82;98883.81;4206576;83;21047;-86
2022/09/09 21:59:52;;;;;;;15.08;9.70;;;;;;;16.29;95.13;98872.83;4071352;86;21138;-85
2022/09/09 22:06:20;;;;;;;17.62;10.90;;;;;;;16.14;94.91;98858.45;3997934;88;21047;-86
2022/09/09 22:12:22;;;;;;;17.52;11.93;;;;;;;16.06;95.54;98845.94;4110713;85;22024;-86
2022/09/09 22:18:40;;;;;;;17.70;10.35;;;;;;;16.04;95.96;98863.50;4300971;81;20968;-85
2022/09/09 22:25:15;;;;;;;21.30;14.23;;;;;;;16.12;96.62;98859.45;4308585;81;21086;-85
2022/09/09 22:31:17;;;;;;;20.52;15.20;;;;;;;16.19;96.76;98864.11;4307611;81;21007;-86
2022/09/09 22:37:24;;;;;;;19.25;13.60;;;;;;;16.20;96.92;98850.47;4310247;81;21103;-85
2022/09/09 22:43:26;;;;;;;16.93;11.68;;;;;;;16.20;97.16;98844.36;4307842;81;21025;-85
2022/09/09 22:57:10;;;;;;;21.68;15.83;;;;;;;16.35;97.36;98842.19;4223883;83;21004;-86
2022/09/09 23:03:40;;;;;;;20.75;16.30;;;;;;;16.33;97.67;98831.56;4049832;86;21105;-86
2022/09/09 23:10:18;;;;;;;22.90;14.70;;;;;;;16.26;97.75;98826.13;4069064;87;21129;-86
2022/09/09 23:31:11;;;;;;;17.75;13.38;;;;;;;16.18;98.62;98805.33;3959838;90;21046;-85
2022/09/09 23:37:13;;;;;;;22.17;15.58;;;;;;;16.09;98.83;98794.61;4021644;86;21031;-86
2022/09/09 23:43:27;;;;;;;20.17;15.98;;;;;;;15.96;99.54;98813.72;4038343;86;21029;-85
2022/09/09 23:49:54;;;;;;;19.82;15.75;;;;;;;15.96;99.89;98803.29;4016114;86;21114;-86
2022/09/09 23:56:08;;;;;;;24.65;15.55;;;;;;;15.87;100.00;98804.37;3998583;88;21073;-85
